createdAt,value
2018-06-16T00:01:30.535Z,101790.04
2018-06-16T00:04:32.675Z,101784.71
2018-06-16T00:07:34.795Z,101784.51
2018-06-16T00:10:36.934Z,101782.18
2018-06-16T00:13:39.018Z,101784.55
2018-06-16T00:16:41.190Z,101780.66
2018-06-16T00:19:43.250Z,101784.98
2018-06-16T00:22:45.316Z,101773.82
2018-06-16T00:25:47.371Z,101772.12
2018-06-16T00:28:49.406Z,101769.46
2018-06-16T00:31:52.258Z,101767.91
2018-06-16T00:34:54.279Z,101772.26
2018-06-16T00:37:57.305Z,101774.09
2018-06-16T00:40:59.529Z,101776.92
2018-06-16T00:44:01.619Z,101778.81
2018-06-16T00:47:03.595Z,101780.98
2018-06-16T00:50:05.795Z,101781.08
2018-06-16T00:53:07.815Z,101778.93
2018-06-16T00:56:09.922Z,101776.71
2018-06-16T00:59:17.391Z,101778.98
2018-06-16T01:02:19.482Z,101780.47
2018-06-16T01:05:22.265Z,101782.16
2018-06-16T01:08:24.819Z,101778.58
2018-06-16T01:11:26.902Z,101778.15
2018-06-16T01:14:28.985Z,101779.60
2018-06-16T01:17:31.087Z,101773.02
2018-06-16T01:20:33.260Z,101773.69
2018-06-16T01:23:35.315Z,101776.46
2018-06-16T01:26:37.344Z,101768.67
2018-06-16T01:29:39.422Z,101768.33
2018-06-16T01:32:45.288Z,101769.94
2018-06-16T01:35:47.352Z,101773.38
2018-06-16T01:38:49.430Z,101776.19
2018-06-16T01:41:52.006Z,101773.54
2018-06-16T01:44:54.122Z,101772.22
2018-06-16T01:47:56.242Z,101774.55
2018-06-16T01:50:58.307Z,101772.80
2018-06-16T01:54:00.358Z,101771.62
2018-06-16T01:57:02.431Z,101770.83
2018-06-16T02:00:04.772Z,101767.86
2018-06-16T02:03:06.851Z,101770.12
2018-06-16T02:06:08.923Z,101763.98
2018-06-16T02:09:12.205Z,101768.73
2018-06-16T02:12:14.212Z,101763.68
2018-06-16T02:15:16.273Z,101757.95
2018-06-16T02:18:18.263Z,101751.86
2018-06-16T02:21:20.331Z,101754.97
2018-06-16T02:24:22.951Z,101748.60
2018-06-16T02:27:25.072Z,101748.27
2018-06-16T02:30:27.131Z,101752.72
2018-06-16T02:33:29.220Z,101748.65
2018-06-16T02:36:31.287Z,101748.07
2018-06-16T02:39:33.371Z,101744.35
2018-06-16T02:42:35.418Z,101743.89
2018-06-16T02:45:37.561Z,101739.32
2018-06-16T02:48:39.654Z,101739.76
2018-06-16T02:51:41.786Z,101738.50
2018-06-16T02:54:43.829Z,101741.72
2018-06-16T02:57:45.969Z,101749.49
2018-06-16T03:00:48.078Z,101743.32
2018-06-16T03:03:50.137Z,101743.57
2018-06-16T03:06:52.886Z,101741.75
2018-06-16T03:09:54.990Z,101737.69
2018-06-16T03:12:57.749Z,101743.04
2018-06-16T03:15:59.833Z,101747.34
2018-06-16T03:19:02.739Z,101748.45
2018-06-16T03:22:04.687Z,101746.18
2018-06-16T03:25:06.759Z,101748.45
2018-06-16T03:28:08.815Z,101753.05
2018-06-16T03:31:10.889Z,101747.68
2018-06-16T03:34:12.991Z,101749.72
2018-06-16T03:37:15.077Z,101752.70
2018-06-16T03:40:17.191Z,101749.34
2018-06-16T03:43:19.186Z,101755.30
2018-06-16T03:46:21.220Z,101756.30
2018-06-16T03:49:23.322Z,101755.78
2018-06-16T03:52:25.370Z,101758.46
2018-06-16T03:55:27.555Z,101759.94
2018-06-16T03:58:29.612Z,101762.46
2018-06-16T04:01:32.638Z,101762.19
2018-06-16T04:04:34.750Z,101768.02
2018-06-16T04:07:36.832Z,101766.76
2018-06-16T04:10:39.922Z,101765.74
2018-06-16T04:13:41.883Z,101767.83
2018-06-16T04:16:43.936Z,101764.29
2018-06-16T04:19:46.687Z,101765.46
2018-06-16T04:22:48.682Z,101758.29
2018-06-16T04:25:50.788Z,101768.46
2018-06-16T04:28:52.841Z,101768.17
2018-06-16T04:31:56.979Z,101768.17
2018-06-16T04:34:59.039Z,101767.75
2018-06-16T04:38:02.164Z,101768.89
2018-06-16T04:41:04.581Z,101764.63
2018-06-16T04:44:06.730Z,101766.48
2018-06-16T04:47:08.724Z,101766.49
2018-06-16T04:50:10.807Z,101772.15
2018-06-16T04:53:12.859Z,101771.23
2018-06-16T04:56:14.987Z,101775.64
2018-06-16T04:59:16.927Z,101779.16
2018-06-16T05:02:18.934Z,101783.77
2018-06-16T05:05:21.027Z,101786.90
2018-06-16T05:08:23.169Z,101788.31
2018-06-16T05:11:25.198Z,101784.01
2018-06-16T05:14:27.251Z,101780.13
2018-06-16T05:17:29.366Z,101779.27
2018-06-16T05:20:31.330Z,101769.30
2018-06-16T05:23:33.408Z,101770.18
2018-06-16T05:26:35.441Z,101766.70
2018-06-16T05:29:37.664Z,101766.82
2018-06-16T05:32:39.816Z,101763.37
2018-06-16T05:35:42.856Z,101760.17
2018-06-16T05:38:45.022Z,101752.93
2018-06-16T05:41:47.171Z,101758.59
2018-06-16T05:44:49.177Z,101754.35
2018-06-16T05:47:51.265Z,101761.25
2018-06-16T05:50:53.529Z,101767.19
2018-06-16T05:53:55.652Z,101772.83
2018-06-16T05:56:59.869Z,101771.78
2018-06-16T06:00:01.895Z,101776.59
2018-06-16T06:03:04.107Z,101780.26
2018-06-16T06:06:06.026Z,101790.62
2018-06-16T06:09:09.146Z,101793.61
2018-06-16T06:12:11.328Z,101795.99
2018-06-16T06:15:14.812Z,101795.66
2018-06-16T06:18:16.881Z,101795.14
2018-06-16T06:21:19.356Z,101799.32
2018-06-16T06:24:22.396Z,101798.43
2018-06-16T06:27:24.422Z,101803.63
2018-06-16T06:30:26.780Z,101804.61
2018-06-16T06:33:28.940Z,101803.19
2018-06-16T06:36:31.036Z,101803.88
2018-06-16T06:39:33.027Z,101802.15
2018-06-16T06:42:45.078Z,101804.04
2018-06-16T06:45:48.870Z,101804.32
2018-06-16T06:48:50.938Z,101799.49
2018-06-16T06:51:53.008Z,101803.84
2018-06-16T06:54:55.195Z,101802.44
2018-06-16T06:57:57.309Z,101800.75
2018-06-16T07:00:59.339Z,101804.15
2018-06-16T07:04:01.463Z,101804.77
2018-06-16T07:07:03.446Z,101806.62
2018-06-16T07:10:05.520Z,101797.90
2018-06-16T07:13:07.694Z,101800.36
2018-06-16T07:16:09.803Z,101800.75
2018-06-16T07:19:11.919Z,101804.20
2018-06-16T07:22:14.970Z,101800.34
2018-06-16T07:25:17.095Z,101803.11
2018-06-16T07:28:20.163Z,101805.18
2018-06-16T07:31:22.199Z,101813.07
2018-06-16T07:34:24.346Z,101807.73
2018-06-16T07:37:26.389Z,101807.43
2018-06-16T07:40:30.541Z,101804.77
2018-06-16T07:43:32.857Z,101808.84
2018-06-16T07:46:34.823Z,101808.26
2018-06-16T07:49:36.905Z,101802.13
2018-06-16T07:52:38.881Z,101800.58
2018-06-16T07:55:40.914Z,101800.64
2018-06-16T07:58:42.994Z,101794.56
2018-06-16T08:01:44.947Z,101795.26
2018-06-16T08:04:47.054Z,101797.04
2018-06-16T08:07:49.894Z,101790.50
2018-06-16T08:10:51.991Z,101788.90
2018-06-16T08:13:54.071Z,101791.88
2018-06-16T08:16:56.160Z,101790.14
2018-06-16T08:19:58.219Z,101792.09
2018-06-16T08:23:00.301Z,101783.81
2018-06-16T08:26:02.361Z,101778.20
2018-06-16T08:29:04.461Z,101777.43
2018-06-16T08:32:06.595Z,101773.25
2018-06-16T08:35:08.643Z,101769.31
2018-06-16T08:38:10.619Z,101762.87
2018-06-16T08:41:12.695Z,101764.75
2018-06-16T08:44:14.677Z,101764.32
2018-06-16T08:47:16.724Z,101766.38
2018-06-16T08:50:19.247Z,101759.40
2018-06-16T08:53:21.383Z,101758.82
2018-06-16T08:56:23.457Z,101756.86
2018-06-16T08:59:25.442Z,101760.25
2018-06-16T09:02:27.590Z,101761.07
2018-06-16T09:05:29.659Z,101760.76
2018-06-16T09:08:31.699Z,101760.94
2018-06-16T09:11:33.870Z,101760.59
2018-06-16T09:14:35.771Z,101760.64
2018-06-16T09:17:37.831Z,101751.91
2018-06-16T09:20:39.941Z,101751.31
2018-06-16T09:23:41.944Z,101758.77
2018-06-16T09:26:44.085Z,101756.82
2018-06-16T09:29:46.121Z,101757.19
2018-06-16T09:32:48.047Z,101753.06
2018-06-16T09:35:50.134Z,101756.72
2018-06-16T09:38:52.217Z,101749.62
2018-06-16T09:41:54.250Z,101746.74
2018-06-16T09:44:59.238Z,101749.10
2018-06-16T09:48:01.707Z,101746.25
2018-06-16T09:51:03.823Z,101743.79
2018-06-16T09:54:05.967Z,101745.05
2018-06-16T09:57:08.098Z,101746.97
2018-06-16T10:00:16.766Z,101740.44
2018-06-16T10:03:18.716Z,101733.93
2018-06-16T10:06:21.920Z,101727.51
2018-06-16T10:09:24.469Z,101724.55
2018-06-16T10:12:26.491Z,101727.07
2018-06-16T10:15:28.844Z,101725.56
2018-06-16T10:18:31.005Z,101726.08
2018-06-16T10:21:33.148Z,101725.43
2018-06-16T10:24:35.218Z,101722.13
2018-06-16T10:27:38.086Z,101725.81
2018-06-16T10:30:40.669Z,101723.15
2018-06-16T10:33:43.090Z,101726.44
2018-06-16T10:36:46.583Z,101721.19
2018-06-16T10:39:48.773Z,101715.16
2018-06-16T10:42:52.657Z,101714.10
2018-06-16T10:45:55.654Z,101715.40
2018-06-16T10:48:57.668Z,101710.02
2018-06-16T10:52:00.899Z,101706.05
2018-06-16T10:55:03.121Z,101697.47
2018-06-16T10:58:05.163Z,101696.25
2018-06-16T11:01:07.658Z,101700.99
2018-06-16T11:04:10.123Z,101699.84
2018-06-16T11:07:12.326Z,101695.44
2018-06-16T11:10:14.410Z,101691.70
2018-06-16T11:13:16.838Z,101688.10
2018-06-16T11:16:18.974Z,101688.84
2018-06-16T11:19:21.063Z,101684.93
2018-06-16T11:22:23.134Z,101681.71
2018-06-16T11:25:26.183Z,101678.25
2018-06-16T11:28:28.443Z,101676.29
2018-06-16T11:31:30.443Z,101666.41
2018-06-16T11:34:32.549Z,101661.74
2018-06-16T11:37:34.597Z,101658.41
2018-06-16T11:40:36.683Z,101651.20
2018-06-16T11:43:38.829Z,101647.51
2018-06-16T11:46:40.880Z,101641.54
2018-06-16T11:49:42.959Z,101641.12
2018-06-16T11:52:44.895Z,101637.30
2018-06-16T11:55:46.970Z,101634.44
2018-06-16T11:58:49.058Z,101633.70
2018-06-16T12:01:51.139Z,101630.74
2018-06-16T12:04:53.194Z,101623.32
2018-06-16T12:07:55.932Z,101621.31
2018-06-16T12:10:58.060Z,101619.43
2018-06-16T12:14:00.214Z,101609.94
2018-06-16T12:17:02.287Z,101608.36
2018-06-16T12:20:04.402Z,101612.24
2018-06-16T12:23:06.803Z,101609.36
2018-06-16T12:26:08.798Z,101605.84
2018-06-16T12:29:11.883Z,101610.70
2018-06-16T12:32:13.946Z,101614.42
2018-06-16T12:35:15.918Z,101608.26
2018-06-16T12:38:18.455Z,101608.63
2018-06-16T12:41:20.863Z,101605.81
2018-06-16T12:44:22.822Z,101609.66
2018-06-16T12:47:25.071Z,101608.96
2018-06-16T12:50:27.068Z,101602.66
2018-06-16T12:53:29.152Z,101601.53
2018-06-16T12:56:31.284Z,101598.91
2018-06-16T12:59:33.311Z,101603.48
2018-06-16T13:02:35.481Z,101606.83
2018-06-16T13:05:37.574Z,101601.79
2018-06-16T13:08:39.707Z,101605.41
2018-06-16T13:11:41.766Z,101609.08
2018-06-16T13:14:43.861Z,101607.18
2018-06-16T13:17:45.899Z,101600.20
2018-06-16T13:20:47.910Z,101599.22
2018-06-16T13:23:52.024Z,101605.52
2018-06-16T13:26:54.090Z,101596.69
2018-06-16T13:29:56.482Z,101591.69
2018-06-16T13:32:58.640Z,101597.34
2018-06-16T13:36:05.536Z,101595.18
2018-06-16T13:39:09.080Z,101600.11
2018-06-16T13:42:12.223Z,101596.54
2018-06-16T13:45:14.319Z,101592.67
2018-06-16T13:48:16.334Z,101590.31
2018-06-16T13:51:18.540Z,101589.44
2018-06-16T13:54:21.420Z,101590.72
2018-06-16T13:57:23.467Z,101591.22
2018-06-16T14:00:26.583Z,101587.05
2018-06-16T14:03:28.644Z,101579.80
2018-06-16T14:06:30.739Z,101578.58
2018-06-16T14:09:32.901Z,101579.55
2018-06-16T14:12:34.850Z,101580.39
2018-06-16T14:15:36.913Z,101576.59
2018-06-16T14:18:39.065Z,101574.91
2018-06-16T14:21:41.038Z,101573.09
2018-06-16T14:24:43.124Z,101568.92
2018-06-16T14:27:45.075Z,101563.50
2018-06-16T14:30:47.311Z,101562.62
2018-06-16T14:33:49.415Z,101557.00
2018-06-16T14:36:51.616Z,101557.36
2018-06-16T14:39:54.078Z,101549.52
2018-06-16T14:42:56.671Z,101548.66
2018-06-16T14:45:58.843Z,101549.69
2018-06-16T14:49:00.886Z,101547.86
2018-06-16T14:52:03.007Z,101549.45
2018-06-16T14:55:05.224Z,101547.64
2018-06-16T14:58:07.631Z,101544.45
2018-06-16T15:01:09.706Z,101542.23
2018-06-16T15:04:11.893Z,101541.31
2018-06-16T15:07:13.900Z,101530.58
2018-06-16T15:10:15.968Z,101534.63
2018-06-16T15:13:18.028Z,101531.55
2018-06-16T15:16:20.127Z,101529.90
2018-06-16T15:19:22.223Z,101530.26
2018-06-16T15:22:24.355Z,101535.42
2018-06-16T15:25:27.058Z,101529.84
2018-06-16T15:28:29.198Z,101531.22
2018-06-16T15:31:31.288Z,101524.76
2018-06-16T15:34:33.367Z,101521.12
2018-06-16T15:37:35.600Z,101519.86
2018-06-16T15:40:37.704Z,101524.75
2018-06-16T15:43:39.674Z,101514.83
2018-06-16T15:46:41.722Z,101519.89
2018-06-16T15:49:43.922Z,101520.49
2018-06-16T15:52:45.984Z,101524.23
2018-06-16T15:55:48.040Z,101519.83
2018-06-16T15:58:50.167Z,101516.58
2018-06-16T16:01:52.196Z,101517.25
2018-06-16T16:04:54.132Z,101514.75
2018-06-16T16:07:57.030Z,101509.89
2018-06-16T16:10:59.094Z,101512.54
2018-06-16T16:14:01.154Z,101507.82
2018-06-16T16:17:03.210Z,101506.93
2018-06-16T16:20:05.362Z,101506.25
2018-06-16T16:23:07.386Z,101504.80
2018-06-16T16:26:09.530Z,101507.86
2018-06-16T16:29:11.669Z,101504.69
2018-06-16T16:32:14.391Z,101508.89
2018-06-16T16:35:16.417Z,101509.37
2018-06-16T16:38:18.799Z,101511.36
2018-06-16T16:41:20.884Z,101508.80
2018-06-16T16:44:22.838Z,101513.29
2018-06-16T16:47:24.996Z,101512.23
2018-06-16T16:50:27.003Z,101513.40
2018-06-16T16:53:29.056Z,101510.64
2018-06-16T16:56:31.325Z,101514.90
2018-06-16T16:59:33.445Z,101514.05
2018-06-16T17:02:35.488Z,101511.67
2018-06-16T17:05:37.570Z,101516.34
2018-06-16T17:08:39.622Z,101513.80
2018-06-16T17:11:41.746Z,101517.58
2018-06-16T17:14:44.784Z,101517.22
2018-06-16T17:17:46.835Z,101518.47
2018-06-16T17:20:48.985Z,101518.00
2018-06-16T17:23:51.101Z,101516.10
2018-06-16T17:26:53.183Z,101514.68
2018-06-16T17:29:55.228Z,101516.35
2018-06-16T17:32:57.295Z,101518.58
2018-06-16T17:35:59.495Z,101523.08
2018-06-16T17:39:01.541Z,101521.94
2018-06-16T17:42:03.623Z,101521.91
2018-06-16T17:45:05.787Z,101523.56
2018-06-16T17:48:08.855Z,101521.52
2018-06-16T17:51:15.104Z,101527.03
2018-06-16T17:54:17.158Z,101529.19
2018-06-16T17:57:19.193Z,101529.51
2018-06-16T18:00:21.318Z,101533.38
2018-06-16T18:03:23.480Z,101538.40
2018-06-16T18:06:25.567Z,101536.44
2018-06-16T18:09:27.660Z,101531.21
2018-06-16T18:12:29.836Z,101528.58
2018-06-16T18:15:31.867Z,101527.11
2018-06-16T18:18:35.052Z,101534.79
2018-06-16T18:21:37.165Z,101529.34
2018-06-16T18:24:39.263Z,101534.84
2018-06-16T18:27:41.417Z,101533.79
2018-06-16T18:30:44.415Z,101530.79
2018-06-16T18:33:47.616Z,101527.80
2018-06-16T18:36:49.656Z,101529.55
2018-06-16T18:39:51.743Z,101529.89
2018-06-16T18:42:53.881Z,101529.31
2018-06-16T18:45:56.068Z,101532.22
2018-06-16T18:48:58.117Z,101535.00
2018-06-16T18:52:00.212Z,101541.31
2018-06-16T18:55:02.295Z,101540.44
2018-06-16T18:58:06.062Z,101539.71
2018-06-16T19:01:08.159Z,101542.71
2018-06-16T19:04:10.301Z,101546.58
2018-06-16T19:07:12.346Z,101546.87
2018-06-16T19:10:14.492Z,101547.43
2018-06-16T19:13:16.716Z,101550.06
2018-06-16T19:16:18.811Z,101552.46
2018-06-16T19:19:20.934Z,101559.52
2018-06-16T19:22:22.892Z,101556.07
2018-06-16T19:25:25.011Z,101561.87
2018-06-16T19:28:27.062Z,101563.67
2018-06-16T19:31:29.152Z,101563.92
2018-06-16T19:34:31.198Z,101569.48
2018-06-16T19:37:33.322Z,101573.84
2018-06-16T19:40:36.587Z,101577.49
2018-06-16T19:43:38.887Z,101578.11
2018-06-16T19:46:40.939Z,101580.99
2018-06-16T19:49:42.980Z,101588.09
2018-06-16T19:52:45.055Z,101584.13
2018-06-16T19:55:47.112Z,101589.74
2018-06-16T19:58:49.185Z,101592.46
2018-06-16T20:01:51.267Z,101595.15
2018-06-16T20:04:53.323Z,101590.27
2018-06-16T20:07:55.416Z,101600.27
2018-06-16T20:10:57.406Z,101601.52
2018-06-16T20:13:59.588Z,101603.10
2018-06-16T20:17:01.782Z,101608.72
2018-06-16T20:20:06.294Z,101609.52
2018-06-16T20:23:08.431Z,101612.17
2018-06-16T20:26:10.801Z,101606.71
2018-06-16T20:29:12.860Z,101611.69
2018-06-16T20:32:14.833Z,101615.14
2018-06-16T20:35:16.915Z,101619.40
2018-06-16T20:38:18.946Z,101619.09
2018-06-16T20:41:21.118Z,101623.88
2018-06-16T20:44:23.298Z,101623.38
2018-06-16T20:47:25.387Z,101626.14
2018-06-16T20:50:28.483Z,101629.69
2018-06-16T20:53:31.181Z,101625.63
2018-06-16T20:56:33.610Z,101627.81
2018-06-16T20:59:36.118Z,101627.33
2018-06-16T21:02:38.090Z,101630.50
2018-06-16T21:05:40.139Z,101634.88
2018-06-16T21:08:42.210Z,101633.51
2018-06-16T21:11:45.284Z,101636.17
2018-06-16T21:14:47.357Z,101640.78
2018-06-16T21:17:50.576Z,101640.52
2018-06-16T21:20:52.868Z,101645.28
2018-06-16T21:23:55.024Z,101646.01
2018-06-16T21:26:57.157Z,101647.35
2018-06-16T21:29:59.272Z,101650.77
2018-06-16T21:33:01.473Z,101647.31
2018-06-16T21:36:03.575Z,101662.83
2018-06-16T21:39:06.640Z,101684.24
2018-06-16T21:42:08.896Z,101680.14
2018-06-16T21:45:10.925Z,101691.00
2018-06-16T21:48:14.054Z,101688.87
2018-06-16T21:51:16.239Z,101687.37
2018-06-16T21:54:19.566Z,101687.76
2018-06-16T21:57:21.642Z,101689.07
2018-06-16T22:00:28.298Z,101690.73
2018-06-16T22:03:30.346Z,101691.30
2018-06-16T22:06:33.032Z,101693.94
2018-06-16T22:09:35.111Z,101697.06
2018-06-16T22:12:37.280Z,101696.03
2018-06-16T22:15:39.355Z,101700.80
2018-06-16T22:18:41.434Z,101706.33
2018-06-16T22:21:43.500Z,101704.45
2018-06-16T22:24:45.574Z,101707.94
2018-06-16T22:27:47.951Z,101710.56
2018-06-16T22:30:51.539Z,101712.08
2018-06-16T22:33:53.611Z,101714.32
2018-06-16T22:36:55.733Z,101719.02
2018-06-16T22:39:57.759Z,101726.05
2018-06-16T22:43:00.899Z,101729.75
2018-06-16T22:46:02.831Z,101731.87
2018-06-16T22:49:05.052Z,101728.54
2018-06-16T22:52:07.447Z,101728.14
2018-06-16T22:55:09.598Z,101729.05
2018-06-16T22:58:11.631Z,101725.41
2018-06-16T23:01:13.683Z,101724.01
2018-06-16T23:04:15.750Z,101726.11
2018-06-16T23:07:17.875Z,101727.93
2018-06-16T23:10:21.292Z,101725.92
2018-06-16T23:13:23.374Z,101730.33
2018-06-16T23:16:25.454Z,101729.10
2018-06-16T23:19:27.407Z,101723.41
2018-06-16T23:22:29.364Z,101731.02
2018-06-16T23:25:31.443Z,101734.57
2018-06-16T23:28:34.451Z,101736.88
2018-06-16T23:31:36.502Z,101734.08
2018-06-16T23:34:38.611Z,101740.42
2018-06-16T23:37:40.687Z,101744.24
2018-06-16T23:40:42.820Z,101749.51
2018-06-16T23:43:44.878Z,101754.11
2018-06-16T23:46:46.958Z,101752.09
2018-06-16T23:49:50.055Z,101753.36
2018-06-16T23:52:52.126Z,101759.48
2018-06-16T23:55:54.372Z,101760.70
2018-06-16T23:58:56.740Z,101764.98
